Dover, Delaware
Current Conditions -  °F | °C
As of 11:58 PM on Wednesday 22 Oct 2014 (Local Time) from KDOV Reporting Station
Broken Clouds Broken Clouds  
Wind Chill: 52°   Ceiling: 7000
Heat Index: 52°   Visibility: 10mi
Dew Point: 49°   Wind: 18mph
Humidity: 92%   Direction: 310°NW
Pressure: 29.77"   Gusts: 26mph
Location:  39.16°N, 75.52°W
Report Text: KDOV 230358Z AUTO 31016G23KT 10SM FEW031 BKN070 BKN140 11/10 A2977 RMK AO2 RAB0306E0322DZB0319E0321 SLP084 P0000 T01090097
Loading
Personal Weather Stations






























Interactive Weather Map New forecast layout! Learn more

10-Day Weather Forecast

Advertisements
Track Severe Weather on mobile